createdAt,value
2023-05-18T00:00:14.189Z,2.78
2023-05-18T00:02:43.361Z,2.95
2023-05-18T00:05:11.991Z,3.20
2023-05-18T00:07:41.955Z,3.13
2023-05-18T00:10:11.801Z,2.80
2023-05-18T00:12:40.403Z,2.95
2023-05-18T00:15:10.474Z,2.58
2023-05-18T00:17:39.189Z,2.55
2023-05-18T00:20:10.350Z,2.42
2023-05-18T00:22:42.793Z,2.90
2023-05-18T00:25:12.889Z,3.03
2023-05-18T00:27:41.499Z,2.45
2023-05-18T00:30:10.807Z,3.05
2023-05-18T00:32:39.535Z,3.00
2023-05-18T00:35:08.668Z,3.00
2023-05-18T00:37:37.335Z,3.30
2023-05-18T00:40:07.705Z,3.13
2023-05-18T00:42:37.642Z,2.85
2023-05-18T00:45:07.485Z,2.50
2023-05-18T00:47:36.581Z,3.28
2023-05-18T00:50:06.567Z,2.75
2023-05-18T00:52:36.140Z,3.05
2023-05-18T00:55:07.035Z,2.60
2023-05-18T00:57:38.395Z,2.65
2023-05-18T01:00:10.825Z,3.20
2023-05-18T01:02:42.681Z,2.60
2023-05-18T01:05:12.146Z,2.90
2023-05-18T01:07:43.359Z,2.65
2023-05-18T01:10:16.131Z,3.05
2023-05-18T01:12:51.855Z,3.13
2023-05-18T01:15:24.434Z,2.80
2023-05-18T01:18:05.028Z,2.97
2023-05-18T01:20:39.189Z,3.15
2023-05-18T01:23:21.433Z,2.67
2023-05-18T01:26:13.184Z,3.05
2023-05-18T01:28:42.916Z,3.03
2023-05-18T01:31:12.494Z,2.50
2023-05-18T01:33:41.509Z,2.80
2023-05-18T01:36:11.474Z,2.78
2023-05-18T01:38:43.764Z,2.53
2023-05-18T01:41:19.854Z,2.42
2023-05-18T01:43:54.487Z,3.30
2023-05-18T01:46:33.131Z,2.78
2023-05-18T01:49:17.784Z,2.85
2023-05-18T01:51:48.053Z,2.63
2023-05-18T01:54:21.413Z,2.80
2023-05-18T01:56:55.971Z,2.60
2023-05-18T01:59:25.059Z,2.90
2023-05-18T02:01:59.350Z,2.42
2023-05-18T02:04:29.074Z,3.40
2023-05-18T02:06:57.928Z,2.67
2023-05-18T02:09:26.615Z,3.00
2023-05-18T02:11:56.610Z,2.97
2023-05-18T02:14:27.132Z,3.20
2023-05-18T02:16:57.406Z,2.88
2023-05-18T02:19:26.260Z,3.05
2023-05-18T02:21:56.134Z,3.00
2023-05-18T02:24:24.756Z,2.78
2023-05-18T02:26:53.483Z,2.70
2023-05-18T02:29:23.475Z,3.28
2023-05-18T02:31:52.360Z,2.92
2023-05-18T02:34:22.013Z,3.00
2023-05-18T02:36:50.631Z,2.80
2023-05-18T02:39:19.580Z,2.70
2023-05-18T02:41:48.209Z,2.85
2023-05-18T02:44:16.810Z,2.50
2023-05-18T02:46:46.789Z,3.15
2023-05-18T02:49:15.574Z,3.15
2023-05-18T02:51:44.652Z,2.97
2023-05-18T02:54:13.871Z,2.88
2023-05-18T02:56:44.494Z,2.95
2023-05-18T02:59:24.894Z,2.58
2023-05-18T03:01:54.859Z,2.88
2023-05-18T03:04:26.181Z,2.83
2023-05-18T03:06:57.290Z,2.90
2023-05-18T03:09:26.354Z,3.03
2023-05-18T03:11:56.665Z,3.15
2023-05-18T03:14:25.421Z,2.88
2023-05-18T03:16:58.177Z,2.55
2023-05-18T03:19:28.194Z,2.72
2023-05-18T03:21:57.948Z,2.67
2023-05-18T03:24:30.293Z,3.10
2023-05-18T03:27:01.009Z,3.13
2023-05-18T03:29:31.476Z,3.10
2023-05-18T03:32:02.587Z,3.03
2023-05-18T03:34:31.330Z,2.97
2023-05-18T03:37:00.282Z,3.15
2023-05-18T03:39:28.969Z,2.90
2023-05-18T03:41:58.439Z,2.95
2023-05-18T03:44:26.999Z,2.95
2023-05-18T03:46:56.178Z,3.20
2023-05-18T03:49:26.267Z,3.22
2023-05-18T03:51:56.397Z,3.30
2023-05-18T03:54:25.057Z,3.22
2023-05-18T03:56:53.776Z,2.80
2023-05-18T03:59:22.456Z,3.00
2023-05-18T04:01:53.766Z,3.00
2023-05-18T04:04:23.703Z,3.47
2023-05-18T04:06:53.863Z,3.78
2023-05-18T04:09:23.866Z,3.25
2023-05-18T04:11:53.034Z,3.15
2023-05-18T04:14:24.673Z,3.15
2023-05-18T04:16:53.722Z,3.70
2023-05-18T04:19:25.022Z,3.58
2023-05-18T04:21:55.098Z,3.90
2023-05-18T04:24:23.869Z,3.35
2023-05-18T04:26:52.598Z,3.50
2023-05-18T04:29:21.427Z,3.47
2023-05-18T04:31:50.205Z,3.55
2023-05-18T04:34:19.114Z,3.30
2023-05-18T04:36:48.677Z,3.50
2023-05-18T04:39:18.923Z,3.80
2023-05-18T04:41:47.855Z,3.58
2023-05-18T04:44:18.294Z,3.97
2023-05-18T04:46:47.508Z,4.00
2023-05-18T04:49:16.581Z,3.95
2023-05-18T04:51:46.764Z,3.88
2023-05-18T04:54:16.163Z,3.60
2023-05-18T04:56:47.494Z,4.18
2023-05-18T04:59:16.166Z,4.28
2023-05-18T05:01:45.369Z,3.85
2023-05-18T05:04:14.592Z,3.55
2023-05-18T05:06:43.273Z,4.18
2023-05-18T05:09:14.105Z,4.03
2023-05-18T05:11:43.241Z,4.55
2023-05-18T05:14:13.364Z,4.43
2023-05-18T05:16:42.751Z,4.53
2023-05-18T05:19:11.434Z,4.20
2023-05-18T05:21:40.382Z,4.05
2023-05-18T05:24:09.345Z,4.30
2023-05-18T05:26:38.257Z,4.38
2023-05-18T05:29:09.390Z,4.90
2023-05-18T05:31:39.604Z,4.60
2023-05-18T05:34:08.234Z,4.20
2023-05-18T05:36:37.098Z,4.70
2023-05-18T05:39:06.219Z,4.72
2023-05-18T05:41:34.910Z,4.60
2023-05-18T05:44:03.792Z,5.43
2023-05-18T05:46:32.500Z,4.70
2023-05-18T05:49:04.163Z,4.43
2023-05-18T05:51:32.844Z,4.95
2023-05-18T05:54:01.927Z,4.75
2023-05-18T05:56:31.541Z,4.78
2023-05-18T05:59:00.947Z,4.57
2023-05-18T06:01:29.676Z,4.68
2023-05-18T06:03:58.592Z,4.88
2023-05-18T06:06:29.398Z,4.10
2023-05-18T06:08:58.208Z,3.17
2023-05-18T06:11:27.143Z,3.22
2023-05-18T06:13:55.999Z,3.40
2023-05-18T06:16:25.653Z,3.10
2023-05-18T06:18:54.835Z,3.28
2023-05-18T06:21:23.623Z,3.28
2023-05-18T06:23:53.622Z,2.65
2023-05-18T06:26:38.170Z,3.17
2023-05-18T06:29:08.778Z,2.90
2023-05-18T06:31:50.454Z,3.33
2023-05-18T06:34:23.738Z,3.20
2023-05-18T06:36:53.037Z,3.58
2023-05-18T06:39:23.364Z,3.00
2023-05-18T06:41:52.538Z,2.80
2023-05-18T06:44:27.218Z,2.60
2023-05-18T06:47:12.112Z,3.47
2023-05-18T06:49:40.870Z,2.78
2023-05-18T06:52:10.099Z,2.90
2023-05-18T06:54:40.564Z,2.95
2023-05-18T06:57:09.242Z,3.10
2023-05-18T06:59:37.937Z,3.15
2023-05-18T07:02:06.920Z,3.05
2023-05-18T07:04:35.577Z,3.47
2023-05-18T07:07:04.651Z,3.30
2023-05-18T07:09:33.310Z,3.13
2023-05-18T07:12:03.520Z,2.92
2023-05-18T07:14:32.186Z,3.28
2023-05-18T07:17:00.888Z,2.97
2023-05-18T07:19:30.009Z,2.83
2023-05-18T07:21:59.425Z,3.03
2023-05-18T07:24:28.042Z,3.50
2023-05-18T07:26:58.295Z,3.22
2023-05-18T07:29:30.175Z,2.70
2023-05-18T07:31:58.922Z,2.72
2023-05-18T07:34:27.854Z,3.30
2023-05-18T07:36:57.726Z,3.45
2023-05-18T07:39:29.482Z,3.20
2023-05-18T07:41:58.184Z,3.38
2023-05-18T07:44:26.948Z,3.08
2023-05-18T07:46:57.107Z,3.13
2023-05-18T07:49:25.987Z,2.78
2023-05-18T07:51:54.623Z,3.20
2023-05-18T07:54:23.263Z,3.50
2023-05-18T07:56:51.783Z,3.47
2023-05-18T07:59:20.993Z,2.50
2023-05-18T08:01:49.710Z,3.10
2023-05-18T08:04:19.779Z,3.28
2023-05-18T08:06:48.607Z,2.83
2023-05-18T08:09:17.557Z,2.45
2023-05-18T08:11:46.191Z,3.00
2023-05-18T08:14:14.820Z,2.95
2023-05-18T08:16:43.439Z,3.78
2023-05-18T08:19:12.157Z,3.03
2023-05-18T08:21:42.146Z,3.00
2023-05-18T08:24:11.174Z,3.20
2023-05-18T08:26:39.865Z,3.40
2023-05-18T08:29:10.577Z,3.22
2023-05-18T08:31:39.707Z,3.60
2023-05-18T08:34:08.998Z,3.55
2023-05-18T08:36:38.359Z,3.17
2023-05-18T08:39:08.636Z,2.90
2023-05-18T08:41:45.791Z,3.58
2023-05-18T08:44:18.079Z,4.15
2023-05-18T08:46:50.990Z,3.20
2023-05-18T08:49:21.728Z,3.53
2023-05-18T08:51:58.430Z,3.22
2023-05-18T08:54:28.829Z,3.10
2023-05-18T08:56:58.114Z,2.65
2023-05-18T08:59:28.391Z,3.45
2023-05-18T09:01:57.370Z,2.83
2023-05-18T09:04:27.262Z,2.72
2023-05-18T09:06:57.046Z,3.25
2023-05-18T09:09:28.154Z,3.08
2023-05-18T09:11:57.454Z,3.00
2023-05-18T09:14:26.892Z,2.90
2023-05-18T09:16:55.838Z,2.78
2023-05-18T09:19:25.136Z,3.17
2023-05-18T09:21:53.960Z,3.13
2023-05-18T09:24:24.781Z,2.58
2023-05-18T09:26:55.774Z,2.58
2023-05-18T09:29:25.013Z,3.03
2023-05-18T09:31:54.583Z,2.42
2023-05-18T09:34:24.575Z,2.58
2023-05-18T09:36:54.030Z,2.83
2023-05-18T09:39:22.840Z,2.85
2023-05-18T09:41:58.188Z,2.65
2023-05-18T09:44:34.572Z,2.90
2023-05-18T09:47:03.968Z,3.30
2023-05-18T09:49:32.689Z,2.30
2023-05-18T09:52:01.452Z,2.33
2023-05-18T09:54:30.216Z,2.42
2023-05-18T09:57:10.282Z,1.95
2023-05-18T09:59:39.696Z,2.30
2023-05-18T10:02:08.952Z,2.80
2023-05-18T10:04:39.577Z,2.95
2023-05-18T10:07:13.406Z,2.47
2023-05-18T10:09:43.470Z,2.47
2023-05-18T10:12:14.700Z,2.70
2023-05-18T10:14:44.369Z,2.45
2023-05-18T10:17:16.385Z,2.85
2023-05-18T10:19:46.853Z,2.63
2023-05-18T10:22:18.505Z,2.40
2023-05-18T10:24:51.242Z,2.80
2023-05-18T10:27:27.684Z,2.58
2023-05-18T10:29:59.280Z,2.45
2023-05-18T10:32:33.609Z,2.30
2023-05-18T10:35:03.112Z,3.58
2023-05-18T10:37:33.318Z,3.03
2023-05-18T10:40:02.914Z,2.60
2023-05-18T10:42:33.650Z,2.55
2023-05-18T10:45:03.582Z,3.25
2023-05-18T10:47:33.178Z,2.50
2023-05-18T10:50:05.060Z,2.70
2023-05-18T10:52:34.852Z,2.80
2023-05-18T10:55:04.393Z,2.55
2023-05-18T10:57:39.037Z,2.53
2023-05-18T11:00:10.360Z,2.60
2023-05-18T11:02:42.462Z,2.20
2023-05-18T11:05:12.865Z,2.55
2023-05-18T11:07:41.672Z,2.33
2023-05-18T11:10:12.436Z,2.40
2023-05-18T11:12:43.114Z,2.83
2023-05-18T11:15:12.447Z,2.40
2023-05-18T11:17:41.183Z,2.20
2023-05-18T11:20:18.029Z,2.58
2023-05-18T11:22:49.755Z,2.15
2023-05-18T11:25:54.834Z,2.22
2023-05-18T11:28:24.800Z,2.15
2023-05-18T11:30:53.729Z,2.00
2023-05-18T11:33:28.614Z,2.17
2023-05-18T11:35:59.633Z,1.92
2023-05-18T11:38:54.671Z,1.90
2023-05-18T11:41:35.331Z,2.38
2023-05-18T11:44:19.658Z,2.42
2023-05-18T11:47:02.174Z,2.42
2023-05-18T11:49:32.908Z,2.50
2023-05-18T11:52:07.395Z,2.30
2023-05-18T11:54:47.873Z,2.30
2023-05-18T11:57:18.732Z,2.20
2023-05-18T11:59:50.133Z,1.92
2023-05-18T12:02:25.032Z,2.00
2023-05-18T12:04:55.335Z,2.55
2023-05-18T12:07:25.563Z,2.42
2023-05-18T12:09:54.414Z,2.70
2023-05-18T12:12:24.364Z,2.17
2023-05-18T12:14:58.784Z,1.67
2023-05-18T12:17:40.268Z,2.10
2023-05-18T12:20:10.240Z,2.30
2023-05-18T12:22:39.385Z,2.55
2023-05-18T12:25:09.524Z,1.85
2023-05-18T12:27:40.829Z,2.65
2023-05-18T12:30:13.776Z,2.72
2023-05-18T12:32:46.854Z,2.70
2023-05-18T12:35:16.069Z,2.35
2023-05-18T12:37:45.751Z,2.38
2023-05-18T12:40:16.014Z,2.20
2023-05-18T12:42:53.512Z,2.53
2023-05-18T12:45:27.732Z,2.20
2023-05-18T12:47:57.209Z,2.25
2023-05-18T12:50:27.035Z,2.25
2023-05-18T12:52:57.290Z,2.17
2023-05-18T12:55:26.619Z,1.90
2023-05-18T12:58:03.233Z,2.00
2023-05-18T13:00:36.940Z,2.95
2023-05-18T13:03:12.643Z,1.88
2023-05-18T13:05:44.951Z,2.30
2023-05-18T13:08:15.747Z,2.35
2023-05-18T13:10:45.452Z,2.20
2023-05-18T13:13:16.736Z,2.22
2023-05-18T13:15:47.205Z,1.70
2023-05-18T13:18:16.921Z,1.95
2023-05-18T13:20:49.636Z,2.28
2023-05-18T13:23:21.125Z,2.08
2023-05-18T13:25:50.270Z,2.28
2023-05-18T13:28:20.780Z,2.38
2023-05-18T13:30:51.035Z,2.00
2023-05-18T13:33:19.776Z,2.05
2023-05-18T13:35:49.681Z,1.60
2023-05-18T13:38:18.543Z,2.05
2023-05-18T13:40:47.431Z,2.10
2023-05-18T13:43:19.051Z,1.73
2023-05-18T13:45:47.833Z,2.00
2023-05-18T13:48:18.020Z,2.30
2023-05-18T13:50:46.785Z,2.17
2023-05-18T13:53:15.677Z,2.10
2023-05-18T13:55:44.355Z,2.35
2023-05-18T13:58:13.000Z,2.10
2023-05-18T14:00:41.777Z,1.80
2023-05-18T14:03:10.630Z,1.98
2023-05-18T14:05:40.835Z,2.17
2023-05-18T14:08:09.637Z,1.88
2023-05-18T14:10:38.328Z,2.00
2023-05-18T14:13:08.440Z,2.28
2023-05-18T14:15:37.558Z,2.00
2023-05-18T14:18:06.384Z,1.92
2023-05-18T14:20:37.851Z,2.30
2023-05-18T14:23:09.763Z,1.73
2023-05-18T14:25:38.784Z,2.00
2023-05-18T14:28:07.408Z,2.20
2023-05-18T14:30:36.085Z,2.15
2023-05-18T14:33:04.914Z,1.60
2023-05-18T14:35:33.738Z,2.22
2023-05-18T14:38:02.871Z,1.70
2023-05-18T14:40:33.162Z,2.38
2023-05-18T14:43:01.930Z,1.88
2023-05-18T14:45:30.538Z,1.90
2023-05-18T14:47:59.190Z,1.80
2023-05-18T14:50:27.975Z,1.80
2023-05-18T14:52:56.564Z,1.90
2023-05-18T14:55:25.435Z,1.90
2023-05-18T14:57:55.438Z,2.10
2023-05-18T15:00:24.139Z,2.05
2023-05-18T15:02:52.956Z,2.10
2023-05-18T15:05:21.635Z,2.08
2023-05-18T15:07:50.219Z,1.80
2023-05-18T15:10:20.899Z,2.13
2023-05-18T15:12:49.535Z,1.90
2023-05-18T15:15:19.618Z,1.63
2023-05-18T15:17:48.675Z,2.08
2023-05-18T15:20:17.276Z,2.15
2023-05-18T15:22:45.840Z,2.03
2023-05-18T15:25:14.485Z,1.70
2023-05-18T15:27:43.302Z,2.10
2023-05-18T15:30:12.730Z,1.85
2023-05-18T15:32:43.673Z,2.20
2023-05-18T15:35:12.466Z,2.30
2023-05-18T15:37:41.346Z,1.77
2023-05-18T15:40:10.537Z,2.47
2023-05-18T15:42:39.285Z,2.70
2023-05-18T15:45:09.170Z,2.33
2023-05-18T15:47:38.183Z,2.00
2023-05-18T15:50:09.239Z,2.30
2023-05-18T15:52:37.942Z,2.10
2023-05-18T15:55:07.639Z,2.20
2023-05-18T15:57:36.274Z,1.80
2023-05-18T16:00:05.736Z,2.10
2023-05-18T16:02:40.399Z,2.08
2023-05-18T16:05:10.765Z,2.13
2023-05-18T16:07:41.074Z,2.00
2023-05-18T16:10:10.038Z,1.95
2023-05-18T16:12:38.728Z,2.42
2023-05-18T16:15:08.475Z,2.13
2023-05-18T16:17:37.270Z,2.17
2023-05-18T16:20:06.786Z,2.13
2023-05-18T16:22:36.834Z,4.25
2023-05-18T16:25:05.889Z,8.38
2023-05-18T16:27:34.484Z,5.72
2023-05-18T16:30:03.373Z,2.47
2023-05-18T16:32:32.652Z,2.33
2023-05-18T16:35:02.088Z,1.92
2023-05-18T16:37:30.721Z,2.28
2023-05-18T16:40:00.836Z,2.85
2023-05-18T16:42:29.620Z,2.75
2023-05-18T16:44:58.201Z,2.90
2023-05-18T16:47:27.565Z,2.35
2023-05-18T16:49:56.410Z,3.05
2023-05-18T16:52:24.964Z,2.38
2023-05-18T16:54:53.591Z,2.35
2023-05-18T16:57:25.376Z,2.55
2023-05-18T16:59:59.951Z,3.70
2023-05-18T17:02:28.863Z,2.67
2023-05-18T17:04:59.014Z,3.08
2023-05-18T17:07:27.953Z,3.65
2023-05-18T17:09:56.568Z,3.08
2023-05-18T17:12:26.699Z,2.88
2023-05-18T17:14:55.301Z,4.15
2023-05-18T17:17:24.203Z,3.40
2023-05-18T17:19:53.004Z,2.97
2023-05-18T17:22:21.910Z,3.25
2023-05-18T17:24:50.630Z,3.22
2023-05-18T17:27:19.377Z,2.50
2023-05-18T17:29:49.402Z,2.20
2023-05-18T17:32:18.435Z,2.42
2023-05-18T17:34:46.994Z,2.05
2023-05-18T17:37:15.624Z,2.40
2023-05-18T17:39:44.249Z,2.20
2023-05-18T17:42:12.889Z,2.22
2023-05-18T17:44:41.552Z,2.28
2023-05-18T17:47:11.859Z,2.25
2023-05-18T17:49:40.630Z,2.17
2023-05-18T17:52:09.485Z,2.22
2023-05-18T17:54:38.261Z,2.40
2023-05-18T17:57:07.100Z,2.70
2023-05-18T17:59:38.426Z,2.40
2023-05-18T18:02:07.688Z,2.50
2023-05-18T18:04:37.696Z,2.13
2023-05-18T18:07:06.939Z,2.25
2023-05-18T18:09:37.794Z,2.20
2023-05-18T18:12:06.747Z,2.40
2023-05-18T18:14:35.465Z,2.38
2023-05-18T18:17:04.332Z,2.45
2023-05-18T18:19:33.089Z,2.35
2023-05-18T18:22:03.056Z,2.00
2023-05-18T18:24:31.932Z,2.05
2023-05-18T18:27:01.124Z,2.40
2023-05-18T18:29:31.082Z,1.90
2023-05-18T18:31:59.763Z,2.28
2023-05-18T18:34:28.588Z,1.90
2023-05-18T18:36:57.443Z,2.40
2023-05-18T18:39:27.541Z,2.63
2023-05-18T18:41:56.278Z,2.45
2023-05-18T18:44:25.178Z,2.20
2023-05-18T18:46:53.870Z,2.10
2023-05-18T18:49:22.483Z,1.98
2023-05-18T18:51:52.532Z,2.22
2023-05-18T18:54:23.477Z,2.58
2023-05-18T18:56:54.087Z,2.15
2023-05-18T18:59:22.637Z,2.17
2023-05-18T19:01:51.508Z,2.10
2023-05-18T19:04:21.028Z,2.35
2023-05-18T19:06:54.104Z,2.47
2023-05-18T19:09:41.571Z,2.00
2023-05-18T19:12:11.828Z,2.13
2023-05-18T19:14:40.664Z,2.10
2023-05-18T19:17:09.312Z,2.60
2023-05-18T19:19:38.294Z,2.25
2023-05-18T19:22:07.054Z,2.15
2023-05-18T19:24:35.994Z,2.40
2023-05-18T19:27:04.867Z,2.33
2023-05-18T19:29:37.228Z,2.35
2023-05-18T19:32:08.281Z,2.10
2023-05-18T19:34:36.845Z,2.55
2023-05-18T19:37:05.560Z,2.40
2023-05-18T19:39:34.215Z,2.33
2023-05-18T19:42:02.818Z,2.22
2023-05-18T19:44:31.474Z,3.08
2023-05-18T19:47:01.984Z,2.78
2023-05-18T19:49:31.310Z,3.65
2023-05-18T19:51:59.844Z,3.20
2023-05-18T19:54:28.494Z,3.53
2023-05-18T19:56:57.065Z,3.10
2023-05-18T19:59:25.910Z,3.67
2023-05-18T20:01:56.353Z,4.90
2023-05-18T20:04:28.377Z,3.00
2023-05-18T20:06:58.362Z,3.45
2023-05-18T20:09:27.497Z,3.13
2023-05-18T20:11:56.828Z,3.53
2023-05-18T20:14:26.885Z,2.85
2023-05-18T20:16:58.643Z,3.33
2023-05-18T20:19:29.050Z,3.30
2023-05-18T20:21:57.898Z,3.33
2023-05-18T20:24:26.486Z,3.03
2023-05-18T20:26:55.246Z,2.90
2023-05-18T20:29:23.893Z,3.28
2023-05-18T20:31:53.523Z,3.00
2023-05-18T20:34:22.202Z,2.95
2023-05-18T20:36:52.311Z,3.08
2023-05-18T20:39:20.915Z,3.28
2023-05-18T20:41:50.427Z,3.10
2023-05-18T20:44:22.796Z,2.60
2023-05-18T20:46:53.129Z,2.90
2023-05-18T20:49:24.994Z,3.22
2023-05-18T20:51:55.547Z,2.70
2023-05-18T20:54:24.529Z,3.58
2023-05-18T20:56:54.108Z,3.58
2023-05-18T20:59:23.206Z,3.50
2023-05-18T21:01:52.350Z,3.17
2023-05-18T21:04:21.393Z,3.17
2023-05-18T21:06:50.209Z,4.00
2023-05-18T21:09:20.333Z,3.20
2023-05-18T21:11:49.092Z,3.53
2023-05-18T21:14:18.137Z,2.72
2023-05-18T21:16:46.987Z,2.97
2023-05-18T21:19:16.412Z,3.30
2023-05-18T21:21:45.142Z,3.22
2023-05-18T21:24:13.799Z,3.25
2023-05-18T21:26:43.896Z,3.53
2023-05-18T21:29:12.694Z,3.53
2023-05-18T21:31:41.423Z,3.25
2023-05-18T21:34:10.181Z,4.10
2023-05-18T21:36:38.820Z,3.63
2023-05-18T21:39:09.374Z,4.13
2023-05-18T21:41:40.248Z,4.30
2023-05-18T21:44:10.764Z,4.28
2023-05-18T21:46:39.464Z,4.55
2023-05-18T21:49:08.703Z,4.00
2023-05-18T21:51:37.598Z,4.28
2023-05-18T21:54:06.353Z,4.03
2023-05-18T21:56:36.729Z,4.30
2023-05-18T21:59:05.391Z,3.75
2023-05-18T22:01:35.534Z,3.28
2023-05-18T22:04:04.365Z,5.20
2023-05-18T22:06:33.073Z,5.45
2023-05-18T22:09:01.656Z,3.75
2023-05-18T22:11:30.344Z,3.22
2023-05-18T22:13:58.951Z,3.25
2023-05-18T22:16:27.663Z,3.13
2023-05-18T22:18:57.729Z,3.45
2023-05-18T22:21:26.379Z,3.38
2023-05-18T22:23:54.983Z,3.20
2023-05-18T22:26:23.606Z,3.13
2023-05-18T22:28:52.381Z,3.20
2023-05-18T22:31:21.416Z,2.97
2023-05-18T22:33:52.379Z,3.53
2023-05-18T22:36:23.763Z,3.22
2023-05-18T22:38:52.400Z,2.70
2023-05-18T22:41:21.962Z,3.30
2023-05-18T22:43:50.582Z,2.83
2023-05-18T22:46:20.292Z,3.22
2023-05-18T22:48:48.999Z,2.92
2023-05-18T22:51:18.540Z,3.15
2023-05-18T22:53:48.475Z,3.00
2023-05-18T22:56:19.009Z,3.38
2023-05-18T22:58:47.616Z,3.00
2023-05-18T23:01:16.422Z,3.22
2023-05-18T23:03:45.156Z,2.83
2023-05-18T23:06:14.042Z,3.00
2023-05-18T23:08:43.640Z,2.85
2023-05-18T23:11:13.659Z,2.65
2023-05-18T23:13:42.247Z,3.35
2023-05-18T23:16:11.390Z,2.95
2023-05-18T23:18:40.037Z,2.75
2023-05-18T23:21:09.140Z,3.30
2023-05-18T23:23:37.825Z,3.03
2023-05-18T23:26:06.625Z,3.00
2023-05-18T23:28:37.452Z,3.50
2023-05-18T23:31:06.374Z,3.05
2023-05-18T23:33:35.809Z,3.10
2023-05-18T23:36:05.942Z,3.17
2023-05-18T23:38:37.818Z,2.90
2023-05-18T23:41:08.117Z,2.85
2023-05-18T23:43:38.993Z,2.70
2023-05-18T23:46:10.437Z,2.95
2023-05-18T23:48:39.815Z,2.80
2023-05-18T23:51:12.273Z,3.08
2023-05-18T23:53:41.403Z,2.92
2023-05-18T23:56:12.307Z,3.20
2023-05-18T23:58:45.071Z,3.10
